Latest Coastal Weather Observations for Gabo Island

IDV60701

Issued at 9:12 pm EST Saturday 23 September 2017 (issued every 10 minutes, with the page automatically refreshed every 10 minutes)

About coastal observations | Map of coastal stations | Coastal observations for VIC | Marine services | Other Formats
Station Details ID: 084016 Name: GABO ISLAND LIGHTHOUSE Lat: -37.57 Lon: 149.92 Height: 15.2 m
Data from the previous 72 hours. | See also: Recent months at Gabo Island
Date/Time
EST
Temp
°C
Wind Pressure Rain since
9am
mm
Weather Cloud Vis
km
Sea
Height
m
Swell
Dir  Spd
kts
Gust
kts
hPa Trend Height
m
Period
s
Dir
23/09:00pm 27.8 NW 11 21 993.9 - 0.0 Fine Mostly cloudy 30 1 0.5 10 E
23/08:30pm 29.6 NNW 15 25 993.5 - 0.0 - - - - - - -
23/08:29pm 29.4 NNW 15 25 993.5 - 0.0 - - - - - - -
23/08:23pm 28.3 N 11 25 993.5 - 0.0 - - - - - - -
23/08:00pm 22.9 N 12 16 993.3 - 0.0 - - - - - - -
23/07:30pm 21.6 N 11 16 993.3 - 0.0 - - - - - - -
23/07:00pm 22.2 N 15 20 993.4 - 0.0 - - - - - - -
23/06:30pm 22.5 N 19 23 993.0 - 0.0 - - - - - - -
23/06:00pm 24.1 NNE 24 29 992.9 - 0.0 - - - - - - -
23/05:30pm 23.9 NNE 23 27 992.8 - 0.0 - - - - - - -
23/05:00pm 22.8 NNE 22 27 993.1 - 0.0 - - - - - - -
23/04:30pm 22.1 NNE 25 28 993.2 - 0.0 - - - - - - -
23/04:00pm 23.1 NNE 24 29 993.4 - 0.0 - - - - - - -
23/03:30pm 23.9 NNE 23 27 993.4 - 0.0 - - - - - - -
23/03:00pm 24.3 NNE 15 21 994.1 - 0.0 Haze Partly cloudy 20 1 0.5 10 E
23/02:30pm 21.9 NNE 22 26 994.3 - 0.0 - - - - - - -
23/02:00pm 20.8 NNE 20 23 995.1 - 0.0 - - - - - - -
23/01:30pm 22.0 NNE 20 25 995.7 - 0.0 - - - - - - -
23/01:00pm 23.7 NNE 16 19 996.4 - 0.0 - - - - - - -
23/12:30pm 22.8 NNE 9 15 997.2 - 0.0 - - - - - - -
23/12:00pm 23.0 NNE 11 16 998.0 - 0.0 - - - - - - -
23/11:30am 22.7 NNE 9 13 998.7 - 0.0 - - - - - - -
23/11:07am 25.2 N 9 15 999.6 - 0.0 - - - - - - -
23/11:00am 30.8 N 8 12 999.6 - 0.0 - - - - - - -
23/10:30am 29.9 NNW 11 19 999.9 - 0.0 - - - - - - -
23/10:00am 30.4 NNW 13 19 1000.5 - 0.0 - - - - - - -
23/09:30am 29.8 NNW 12 17 1000.9 - 0.0 - - - - - - -
23/09:00am 27.9 NNW 11 16 1001.3 - 0.0 Fine Mostly cloudy 30 1 0.5 9 E
23/08:30am 25.1 NW 10 15 1001.9 - 0.0 - - - - - - -
23/08:00am 20.5 W 6 8 1002.1 - 0.0 - - - - - - -
23/07:30am 18.9 NE 5 6 1001.9 - 0.0 - - - - - - -
23/07:00am 17.1 NE 1 4 1002.2 - 0.0 - - - - - - -
23/06:30am 15.3 NE 6 9 1002.7 - 0.0 - - - - - - -
23/06:00am 15.1 NE 8 10 1002.8 - 0.0 - - - - - - -
23/05:30am 14.7 NNE 8 11 1003.3 - 0.0 - - - - - - -
23/05:00am 14.0 NNE 6 6 1003.7 - 0.0 - - - - - - -
23/04:30am 14.9 NNE 5 6 1004.0 - 0.0 - - - - - - -
23/04:00am 14.7 ENE 4 6 1004.3 - 0.0 - - - - - - -
23/03:30am 15.4 S 4 5 1004.6 - 0.0 - - - - - - -
23/03:00am 14.7 S 5 6 1004.9 - 0.0 Fine Clear 40 <0.1 0.5 10 S
23/02:30am 14.6 SSW 6 7 1005.2 - 0.0 - - - - - - -
23/02:00am 14.2 SW 5 6 1005.4 - 0.0 - - - - - - -
23/01:30am 14.3 WNW 2 6 1005.8 - 0.0 - - - - - - -
23/01:00am 14.8 NNE 5 6 1006.2 - 0.0 - - - - - - -
23/12:30am 14.6 NNE 6 7 1006.6 - 0.0 - - - - - - -
23/12:00am 14.7 NNE 6 7 1006.9 - 0.0 - - - - - - -
 
Date/Time
EST
Temp
°C
Wind Pressure Rain since
9am
mm
Weather Cloud Vis
km
Sea
Height
m
Swell
Dir  Spd
kts
Gust
kts
hPa Trend Height
m
Period
s
Dir
22/11:30pm 13.7 NNE 6 7 1007.3 - 0.0 - - - - - - -
22/11:00pm 14.2 NE 7 7 1007.5 - 0.0 - - - - - - -
22/10:30pm 12.5 NNE 6 7 1007.7 - 0.0 - - - - - - -
22/10:00pm 14.0 CALM 0 0 1007.8 - 0.0 - - - - - - -
22/09:30pm 14.7 WNW 7 9 1008.0 - 0.0 - - - - - - -
22/09:00pm 14.9 WNW 9 10 1008.3 - 0.0 Fine Clear 20 <0.1 0.5 10 S
22/08:30pm 14.8 WNW 5 7 1008.6 - 0.0 - - - - - - -
22/08:00pm 14.9 NW 7 8 1008.7 - 0.0 - - - - - - -
22/07:30pm 14.8 NW 7 8 1008.7 - 0.0 - - - - - - -
22/07:00pm 15.2 CALM 0 0 1008.6 - 0.0 - - - - - - -
22/06:30pm 15.4 E 3 4 1008.4 - 0.0 - - - - - - -
22/06:00pm 15.8 E 6 6 1008.1 - 0.0 - - - - - - -
22/05:30pm 16.5 E 4 6 1008.1 - 0.0 - - - - - - -
22/05:00pm 16.7 E 6 7 1008.0 - 0.0 - - - - - - -
22/04:30pm 17.3 ESE 6 7 1007.9 - 0.0 - - - - - - -
22/04:00pm 17.6 ESE 4 7 1008.0 - 0.0 - - - - - - -
22/03:30pm 17.8 SE 4 7 1007.9 - 0.0 - - - - - - -
22/03:00pm 17.5 E 4 5 1008.0 - 0.0 - - - - - - -
22/02:30pm 17.3 E 4 5 1008.1 - 0.0 - - - - - - -
22/02:00pm 16.8 E 6 7 1008.3 - 0.0 - - - - - - -
22/01:30pm 16.4 E 7 9 1008.6 - 0.0 - - - - - - -
22/01:00pm 16.2 ENE 9 9 1008.9 - 0.0 - - - - - - -
22/12:30pm 16.0 E 6 7 1009.3 - 0.0 - - - - - - -
22/12:00pm 16.0 E 7 9 1009.5 - 0.0 - - - - - - -
22/11:30am 16.3 E 6 8 1009.7 - 0.0 - - - - - - -
22/11:00am 16.5 E 5 7 1010.0 - 0.0 - - - - - - -
22/10:30am 16.4 SSE 4 5 1010.3 - 0.0 - - - - - - -
22/10:00am 16.9 S 4 5 1010.6 - 0.0 - - - - - - -
22/09:30am 17.0 SW 4 6 1011.1 - 0.0 - - - - - - -
22/09:00am 17.1 W 6 7 1011.5 - 0.0 Fine Partly cloudy 40 <0.5 0.5 10 S
22/08:30am 16.2 WNW 7 9 1011.5 - 0.0 - - - - - - -
22/08:00am 15.4 WNW 9 12 1011.6 - 0.0 - - - - - - -
22/07:30am 14.3 WNW 9 12 1011.7 - 0.0 - - - - - - -
22/07:00am 14.1 W 9 11 1011.4 - 0.0 - - - - - - -
22/06:30am 13.3 W 10 12 1011.2 - 0.0 - - - - - - -
22/06:00am 13.2 W 8 10 1011.1 - 0.0 - - - - - - -
22/05:30am 13.7 WNW 7 9 1010.7 - 0.0 - - - - - - -
22/05:00am 15.3 SW 12 17 1010.3 - 0.0 - - - - - - -
22/04:30am 14.3 WSW 11 14 1010.1 - 0.0 - - - - - - -
22/04:00am 16.1 NW 5 9 1009.5 - 0.0 - - - - - - -
22/03:30am 15.8 NNW 6 8 1009.6 - 0.0 - - - - - - -
22/03:00am 16.6 N 9 10 1009.5 - 0.0 Fine Mostly clear 30 1 1.0 10 S
22/02:30am 14.7 N 7 9 1009.7 - 0.0 - - - - - - -
22/02:00am 15.4 N 6 7 1009.9 - 0.0 - - - - - - -
22/01:30am 17.6 NNW 5 6 1010.3 - 0.0 - - - - - - -
22/01:00am 18.3 NW 6 7 1010.4 - 0.0 - - - - - - -
22/12:30am 17.9 NW 8 11 1010.4 - 0.0 - - - - - - -
22/12:00am 17.0 W 6 9 1010.2 - 0.0 - - - - - - -
 
Date/Time
EST
Temp
°C
Wind Pressure Rain since
9am
mm
Weather Cloud Vis
km
Sea
Height
m
Swell
Dir  Spd
kts
Gust
kts
hPa Trend Height
m
Period
s
Dir
21/11:30pm 15.6 W 4 6 1010.3 - 0.0 - - - - - - -
21/11:00pm 17.0 W 4 7 1010.2 - 0.0 - - - - - - -
21/10:30pm 15.7 W 7 11 1010.4 - 0.0 - - - - - - -
21/10:00pm 14.5 SW 1 3 1010.2 - 0.0 - - - - - - -
21/09:30pm 13.1 N 6 8 1010.1 - 0.0 - - - - - - -
21/09:00pm 14.0 NNE 5 6 1010.3 - 0.0 Fine Mostly cloudy 30 1 1.0 10 S
21/08:30pm 14.3 N 7 9 1010.5 - 0.0 - - - - - - -
21/08:00pm 15.1 NNE 11 13 1010.3 - 0.0 - - - - - - -
21/07:30pm 15.0 NNE 13 16 1010.2 - 0.0 - - - - - - -
21/07:00pm 15.0 NNE 14 16 1010.0 - 0.0 - - - - - - -
21/06:30pm 15.1 NNE 13 15 1009.9 - 0.0 - - - - - - -
21/06:00pm 15.2 NNE 15 18 1009.7 - 0.0 - - - - - - -
21/05:30pm 15.4 NNE 19 23 1009.0 - 0.0 - - - - - - -
21/05:00pm 15.7 NNE 18 21 1009.2 - 0.0 - - - - - - -
21/04:30pm 16.0 NNE 18 21 1009.5 - 0.0 - - - - - - -
21/04:00pm 16.5 NNE 16 20 1009.8 - 0.0 - - - - - - -
21/03:30pm 16.6 NNE 18 22 1009.8 - 0.0 - - - - - - -
21/03:00pm 16.9 NNE 19 22 1009.7 - 0.0 Fine Mostly cloudy 30 2 1.0 10 S
21/02:30pm 16.7 NNE 19 22 1010.0 - 0.0 - - - - - - -
21/02:00pm 17.0 NNE 17 21 1010.6 - 0.0 - - - - - - -
21/01:30pm 16.5 NE 18 21 1010.8 - 0.0 - - - - - - -
21/01:00pm 17.3 NE 18 21 1011.3 - 0.0 - - - - - - -
21/12:30pm 18.3 NNE 15 18 1011.9 - 0.0 - - - - - - -
21/12:00pm 17.4 NNE 17 19 1012.1 - 0.0 - - - - - - -
21/11:30am 16.5 NNE 20 24 1012.4 - 0.0 - - - - - - -
21/11:00am 16.7 NNE 20 23 1013.0 - 0.0 - - - - - - -
21/10:30am 16.7 NNE 21 24 1013.2 - 0.0 - - - - - - -
21/10:00am 16.4 NNE 20 24 1013.4 - 0.0 - - - - - - -
21/09:30am 16.1 NNE 17 20 1013.9 - 0.0 - - - - - - -
21/09:00am 15.6 NNE 16 20 1014.1 - 0.0 Fine Clear 30 <0.5 1.0 10 S
21/08:30am 14.8 NNE 16 19 1014.3 - 0.0 - - - - - - -
21/08:00am 13.3 NNE 11 14 1014.6 - 0.0 - - - - - - -
21/07:30am 10.9 CALM 0 4 1015.0 - 0.0 - - - - - - -
21/07:00am 10.1 N 7 9 1015.3 - 0.0 - - - - - - -
21/06:30am 8.9 NNE 6 8 1015.2 - 0.0 - - - - - - -
21/06:00am 8.5 NW 4 5 1015.2 - 0.0 - - - - - - -
21/05:30am 9.1 N 1 3 1015.2 - 0.0 - - - - - - -
21/05:00am 9.3 WNW 1 3 1015.0 - 0.0 - - - - - - -
21/04:30am 8.8 NNW 5 6 1015.0 - 0.0 - - - - - - -
21/04:00am 7.9 N 7 8 1014.9 - 0.0 - - - - - - -
21/03:30am 8.3 N 5 6 1015.0 - 0.0 - - - - - - -
21/03:00am 8.7 NNE 4 5 1015.0 - 0.0 Fine Clear 30 <0.5 1.0 9 SE
21/02:30am 8.7 N 5 6 1015.3 - 0.0 - - - - - - -
21/02:00am 9.1 N 6 7 1015.7 - 0.0 - - - - - - -
21/01:30am 10.0 N 7 9 1015.7 - 0.0 - - - - - - -
21/01:00am 10.4 NNE 9 11 1015.9 - 0.0 - - - - - - -
21/12:30am 10.4 NNE 8 10 1016.2 - 0.0 - - - - - - -
21/12:00am 9.8 N 8 9 1016.5 - 0.0 - - - - - - -
 
Date/Time
EST
Temp
°C
Wind Pressure Rain since
9am
mm
Weather Cloud Vis
km
Sea
Height
m
Swell
Dir  Spd
kts
Gust
kts
hPa Trend Height
m
Period
s
Dir
20/11:30pm 10.0 N 7 8 1016.7 - 0.0 - - - - - - -
20/11:00pm 11.5 NE 7 9 1017.1 - 0.0 - - - - - - -
20/10:30pm 10.8 NNE 7 8 1017.3 - 0.0 - - - - - - -
20/10:00pm 10.9 NNE 8 10 1017.3 - 0.0 - - - - - - -
20/09:30pm 9.5 N 7 8 1017.4 - 0.0 - - - - - - -

Other Formats:

Comma delimited format used in spreadsheet applications
http://www.bom.gov.au/fwo/IDV60701/IDV60701.94933.axf

JavaScript Object Notation format (JSON) in row-major order
http://www.bom.gov.au/fwo/IDV60701/IDV60701.94933.json